Time;durP1;ratioP1;P1;durP2;ratioP2;P2;SDS_P1;SDS_P2;PMS_P1;PMS_P2;Temp;Humidity;BMP_temperature;BMP_pressure;BME280_temperature;BME280_humidity;BME280_pressure;Samples;Min_cycle;Max_cycle;Signal;HPM_P1;HPM_P2
2021/11/07 00:01:54;;;;;;;9.07;5.68;;;10.00;99.90;;;;;;5074911;28;20058;-66
2021/11/07 00:04:40;;;;;;;8.57;5.47;;;9.90;99.90;;;;;;5075578;28;20052;-65
2021/11/07 00:10:09;;;;;;;7.53;4.93;;;10.00;99.90;;;;;;5075212;28;20029;-66
2021/11/07 00:12:22;;;;;;;9.68;4.85;;;10.00;99.90;;;;;;5074724;28;20027;-64
2021/11/07 00:14:49;;;;;;;8.95;5.03;;;10.00;99.90;;;;;;5075090;28;20023;-65
2021/11/07 00:17:18;;;;;;;8.57;4.80;;;10.00;99.90;;;;;;5073718;28;20024;-65
2021/11/07 00:19:48;;;;;;;6.85;4.60;;;10.00;99.90;;;;;;5074730;28;20524;-66
2021/11/07 00:22:20;;;;;;;9.00;5.00;;;9.90;99.90;;;;;;5075272;28;20017;-64
2021/11/07 00:24:51;;;;;;;7.97;4.75;;;9.90;99.90;;;;;;5075123;28;20400;-65
2021/11/07 00:27:29;;;;;;;9.30;4.55;;;9.80;99.90;;;;;;5075164;28;20510;-65
2021/11/07 00:32:52;;;;;;;9.60;5.70;;;9.60;99.90;;;;;;5112230;27;20437;-65
2021/11/07 00:35:44;;;;;;;9.10;5.53;;;9.50;99.90;;;;;;5111941;28;20028;-65
2021/11/07 00:38:08;;;;;;;7.53;6.07;;;9.50;99.90;;;;;;5110150;28;20024;-65
2021/11/07 00:40:49;;;;;;;10.88;5.95;;;9.50;99.90;;;;;;5110460;28;20439;-64
2021/11/07 00:43:36;;;;;;;11.95;5.95;;;9.50;99.90;;;;;;5111729;28;20023;-66
2021/11/07 00:46:12;;;;;;;9.05;5.95;;;9.40;99.90;;;;;;5111014;28;20028;-65
2021/11/07 00:48:49;;;;;;;11.93;6.78;;;9.40;99.90;;;;;;5111403;28;20020;-65
2021/11/07 00:51:30;;;;;;;11.27;6.40;;;9.40;99.90;;;;;;5110982;28;20473;-65
2021/11/07 00:54:12;;;;;;;14.05;6.43;;;9.40;99.90;;;;;;5111539;28;20020;-65
2021/11/07 00:56:49;;;;;;;12.95;7.13;;;9.40;99.90;;;;;;5110272;28;20028;-64
2021/11/07 00:59:34;;;;;;;12.45;7.43;;;9.30;99.90;;;;;;5111440;28;20381;-64
2021/11/07 01:02:24;;;;;;;14.82;7.78;;;9.20;99.90;;;;;;5110837;28;20024;-64
2021/11/07 01:04:50;;;;;;;13.07;7.90;;;9.20;99.90;;;;;;5111311;28;20027;-65
2021/11/07 01:07:17;;;;;;;15.18;8.50;;;9.10;99.90;;;;;;5110131;28;20020;-64
2021/11/07 01:09:43;;;;;;;15.52;9.00;;;9.00;99.90;;;;;;5109577;28;20020;-64
2021/11/07 01:12:10;;;;;;;19.38;10.02;;;9.00;99.90;;;;;;5111109;28;20542;-64
2021/11/07 01:14:36;;;;;;;17.02;10.20;;;8.90;99.90;;;;;;5109695;28;20043;-65
2021/11/07 01:17:02;;;;;;;16.40;10.10;;;8.90;99.90;;;;;;5111140;28;20381;-64
2021/11/07 01:19:27;;;;;;;14.10;10.07;;;8.80;99.90;;;;;;5093114;28;20168;-67
2021/11/07 01:21:53;;;;;;;15.30;10.10;;;8.80;99.90;;;;;;5110752;28;20055;-67
2021/11/07 01:24:25;;;;;;;19.45;11.85;;;8.80;99.90;;;;;;5110941;28;20024;-67
2021/11/07 01:27:04;;;;;;;19.75;11.75;;;8.70;99.90;;;;;;5109739;28;20020;-67
2021/11/07 01:29:30;;;;;;;20.80;12.80;;;8.70;99.90;;;;;;5110934;28;20107;-67
2021/11/07 01:31:57;;;;;;;21.30;13.77;;;8.70;99.90;;;;;;5110011;28;20127;-67
2021/11/07 01:34:37;;;;;;;22.27;13.15;;;8.60;99.90;;;;;;5110552;28;20016;-67
2021/11/07 01:37:13;;;;;;;22.60;13.45;;;8.60;99.90;;;;;;5110249;28;20016;-67
2021/11/07 01:39:48;;;;;;;19.15;13.27;;;8.60;99.90;;;;;;5110176;28;20012;-66
2021/11/07 01:42:21;;;;;;;18.58;12.95;;;8.60;99.90;;;;;;5107501;28;20366;-66
2021/11/07 01:44:53;;;;;;;21.02;13.38;;;8.60;99.90;;;;;;5096772;28;20377;-66
2021/11/07 01:47:20;;;;;;;24.25;14.07;;;8.60;99.90;;;;;;5096427;28;20085;-66
2021/11/07 01:49:46;;;;;;;20.42;14.13;;;8.50;99.90;;;;;;5095201;28;20024;-66
2021/11/07 01:52:13;;;;;;;26.45;14.48;;;8.60;99.90;;;;;;5096295;28;20020;-66
2021/11/07 01:57:28;;;;;;;19.48;14.07;;;8.50;99.90;;;;;;5112238;27;20354;-66
2021/11/07 01:59:56;;;;;;;23.30;13.77;;;8.50;99.90;;;;;;5111982;28;20469;-66
2021/11/07 02:02:26;;;;;;;21.42;14.43;;;8.50;99.90;;;;;;5093391;28;20116;-66
2021/11/07 02:04:52;;;;;;;19.58;14.30;;;8.50;99.90;;;;;;5111876;28;20369;-66
2021/11/07 02:07:17;;;;;;;20.20;14.85;;;8.50;99.90;;;;;;5111467;28;20103;-66
2021/11/07 02:09:43;;;;;;;20.50;14.65;;;8.50;99.90;;;;;;5111743;28;20031;-66
2021/11/07 02:12:10;;;;;;;22.92;14.65;;;8.50;99.90;;;;;;5111661;28;20030;-66
2021/11/07 02:14:36;;;;;;;23.45;14.35;;;8.50;99.90;;;;;;5111395;28;20466;-66
2021/11/07 02:17:02;;;;;;;18.65;14.02;;;8.50;99.90;;;;;;5111501;28;20453;-66
2021/11/07 02:19:28;;;;;;;22.20;14.93;;;8.50;99.90;;;;;;5093357;28;20031;-66
2021/11/07 02:21:54;;;;;;;20.13;14.15;;;8.50;99.90;;;;;;5111553;28;20023;-66
2021/11/07 02:24:19;;;;;;;22.10;14.50;;;8.50;99.90;;;;;;5111208;28;20023;-65
2021/11/07 02:26:56;;;;;;;19.77;14.30;;;8.50;99.90;;;;;;5110236;28;20039;-66
2021/11/07 02:29:23;;;;;;;19.17;13.25;;;8.50;99.90;;;;;;5111430;28;20020;-66
2021/11/07 02:31:50;;;;;;;17.75;13.05;;;8.60;99.90;;;;;;5110775;28;20027;-66
2021/11/07 02:34:16;;;;;;;20.75;13.52;;;8.60;99.90;;;;;;5109486;28;20032;-66
2021/11/07 02:36:43;;;;;;;20.10;13.93;;;8.60;99.90;;;;;;5111168;28;20092;-66
2021/11/07 02:39:10;;;;;;;20.25;14.75;;;8.60;99.90;;;;;;5111232;28;20042;-66
2021/11/07 02:41:36;;;;;;;18.77;14.02;;;8.60;99.90;;;;;;5111176;28;20048;-66
2021/11/07 02:44:01;;;;;;;20.42;13.82;;;8.60;99.90;;;;;;5111128;28;20070;-66
2021/11/07 02:46:27;;;;;;;20.48;13.65;;;8.60;99.90;;;;;;5111045;28;20465;-66
2021/11/07 02:48:56;;;;;;;20.90;15.00;;;8.60;99.90;;;;;;5109815;28;20028;-66
2021/11/07 02:51:24;;;;;;;21.70;14.60;;;8.60;99.90;;;;;;5110685;28;20031;-66
2021/11/07 02:53:50;;;;;;;23.85;16.08;;;8.70;99.90;;;;;;5109060;28;20031;-66
2021/11/07 02:56:16;;;;;;;24.25;14.82;;;8.70;99.90;;;;;;5110182;28;20047;-66
2021/11/07 02:58:42;;;;;;;22.50;14.60;;;8.70;99.90;;;;;;5110799;28;20446;-66
2021/11/07 03:01:08;;;;;;;22.45;15.23;;;8.70;99.90;;;;;;5110502;28;20027;-66
2021/11/07 03:03:34;;;;;;;19.88;14.13;;;8.80;99.90;;;;;;5110713;28;20024;-66
2021/11/07 03:06:01;;;;;;;22.55;14.77;;;8.80;99.90;;;;;;5091876;28;20037;-67
2021/11/07 03:08:28;;;;;;;24.08;15.15;;;8.90;99.90;;;;;;5098823;28;20024;-66
2021/11/07 03:10:54;;;;;;;21.88;14.75;;;8.90;99.90;;;;;;5097012;28;20086;-66
2021/11/07 03:13:20;;;;;;;20.75;14.48;;;8.90;99.90;;;;;;5097002;28;20024;-66
2021/11/07 03:15:45;;;;;;;22.92;14.52;;;9.00;99.90;;;;;;5095727;28;20468;-66
2021/11/07 03:18:12;;;;;;;18.13;14.35;;;9.00;99.90;;;;;;5095727;28;20028;-66
2021/11/07 03:20:38;;;;;;;19.17;14.05;;;9.10;99.90;;;;;;5079146;28;20020;-65
2021/11/07 03:23:05;;;;;;;20.45;14.60;;;9.10;99.90;;;;;;5096811;28;20031;-66
2021/11/07 03:25:31;;;;;;;19.17;14.13;;;9.10;99.90;;;;;;5094918;28;20024;-65
2021/11/07 03:27:57;;;;;;;19.48;14.68;;;9.20;99.90;;;;;;5096733;28;20039;-66
2021/11/07 03:30:50;;;;;;;18.90;14.00;;;9.20;99.90;;;;;;5096338;28;20020;-66
2021/11/07 03:33:46;;;;;;;16.92;13.38;;;9.20;99.90;;;;;;5095957;28;20024;-66
2021/11/07 03:36:00;;;;;;;19.55;14.95;;;9.20;99.90;;;;;;5094803;28;20024;-66
2021/11/07 03:38:26;;;;;;;18.92;14.35;;;9.30;99.90;;;;;;5096510;28;20031;-66
2021/11/07 03:40:51;;;;;;;21.00;13.73;;;9.20;99.90;;;;;;5096395;28;20020;-66
2021/11/07 03:43:17;;;;;;;18.33;14.18;;;9.30;99.90;;;;;;5096381;28;20069;-66
2021/11/07 03:45:43;;;;;;;24.95;14.52;;;9.30;99.90;;;;;;5095212;28;20028;-66
2021/11/07 03:48:10;;;;;;;19.83;14.02;;;9.30;99.90;;;;;;5095940;28;20098;-66
2021/11/07 03:50:36;;;;;;;19.33;15.18;;;9.40;99.90;;;;;;5094701;28;20490;-66
2021/11/07 03:53:01;;;;;;;20.40;14.13;;;9.40;99.90;;;;;;5095640;28;20059;-66
2021/11/07 03:55:28;;;;;;;18.88;14.73;;;9.40;99.90;;;;;;5095328;28;20485;-66
2021/11/07 03:57:53;;;;;;;19.38;15.40;;;9.40;99.90;;;;;;5078142;28;20016;-65
2021/11/07 04:00:21;;;;;;;20.85;15.18;;;9.40;99.90;;;;;;5096049;28;20020;-66
2021/11/07 04:02:48;;;;;;;23.20;15.50;;;9.40;99.90;;;;;;5094612;28;20028;-65
2021/11/07 04:05:14;;;;;;;22.80;15.02;;;9.50;99.90;;;;;;5094525;28;20020;-65
2021/11/07 04:07:41;;;;;;;20.15;15.10;;;9.50;99.90;;;;;;5095856;28;20477;-66
2021/11/07 04:10:09;;;;;;;26.38;16.55;;;9.50;99.90;;;;;;5095571;28;20035;-65
2021/11/07 04:12:35;;;;;;;23.23;16.10;;;9.50;99.90;;;;;;5095902;28;20083;-66
2021/11/07 04:15:03;;;;;;;23.85;16.38;;;9.50;99.90;;;;;;5093985;28;20089;-66
2021/11/07 04:17:28;;;;;;;22.30;15.45;;;9.50;99.90;;;;;;5094598;28;20420;-66
2021/11/07 04:19:54;;;;;;;23.45;15.55;;;9.50;99.90;;;;;;5094438;28;20038;-66
2021/11/07 04:22:19;;;;;;;26.13;16.23;;;9.50;99.90;;;;;;5095662;28;20043;-66
2021/11/07 04:24:45;;;;;;;26.08;16.73;;;9.50;99.90;;;;;;5095622;28;20373;-66
2021/11/07 04:27:11;;;;;;;24.85;17.15;;;9.50;99.90;;;;;;5095274;28;20492;-65
2021/11/07 04:29:36;;;;;;;26.88;17.08;;;9.50;99.90;;;;;;5095001;28;20063;-66
2021/11/07 04:32:03;;;;;;;25.15;17.08;;;9.50;99.90;;;;;;5094910;28;20032;-66
2021/11/07 04:34:29;;;;;;;27.08;18.40;;;9.50;99.90;;;;;;5095405;28;20020;-66
2021/11/07 04:36:55;;;;;;;28.35;18.67;;;9.50;99.90;;;;;;5094135;28;20382;-66
2021/11/07 04:39:23;;;;;;;25.42;17.73;;;9.50;99.90;;;;;;5093613;28;20024;-66
2021/11/07 04:41:49;;;;;;;27.20;18.42;;;9.50;99.90;;;;;;5093548;28;20016;-66
2021/11/07 04:44:15;;;;;;;31.52;18.58;;;9.50;99.90;;;;;;5095253;28;20066;-66
2021/11/07 04:46:41;;;;;;;29.65;18.52;;;9.50;99.90;;;;;;5095166;28;20050;-66
2021/11/07 04:49:06;;;;;;;29.33;18.85;;;9.50;99.90;;;;;;5094577;28;20028;-66
2021/11/07 04:51:32;;;;;;;29.33;19.80;;;9.50;99.90;;;;;;5094836;28;20024;-66
2021/11/07 04:53:58;;;;;;;29.10;18.90;;;9.50;99.90;;;;;;5093552;28;20052;-66
2021/11/07 04:56:24;;;;;;;27.20;19.50;;;9.50;99.90;;;;;;5094388;28;20476;-66
2021/11/07 04:58:50;;;;;;;29.02;18.45;;;9.60;99.90;;;;;;5094890;28;20070;-66
2021/11/07 05:01:16;;;;;;;27.33;19.98;;;9.50;99.90;;;;;;5093509;28;20024;-66
2021/11/07 05:03:42;;;;;;;26.20;19.30;;;9.50;99.90;;;;;;5094655;28;20016;-66
2021/11/07 05:06:07;;;;;;;23.75;17.50;;;9.50;99.90;;;;;;5094796;28;20035;-66
2021/11/07 05:08:41;;;;;;;26.35;19.75;;;9.60;99.90;;;;;;5094765;28;20024;-66
2021/11/07 05:11:06;;;;;;;27.25;20.60;;;9.60;99.90;;;;;;5094694;28;20107;-66
2021/11/07 05:13:32;;;;;;;27.17;19.65;;;9.50;99.90;;;;;;5094691;28;20109;-65
2021/11/07 05:15:58;;;;;;;30.45;20.73;;;9.60;99.90;;;;;;5094623;28;20016;-66
2021/11/07 05:18:24;;;;;;;28.75;20.65;;;9.60;99.90;;;;;;5094605;28;20031;-66
2021/11/07 05:20:50;;;;;;;29.13;19.92;;;9.60;99.90;;;;;;5094569;28;20016;-65
2021/11/07 05:23:15;;;;;;;28.08;20.92;;;9.60;99.90;;;;;;5094022;28;20039;-66
2021/11/07 05:25:41;;;;;;;27.98;20.65;;;9.60;99.90;;;;;;5094471;28;20028;-66
2021/11/07 05:28:07;;;;;;;25.42;19.83;;;9.60;99.90;;;;;;5092758;28;20035;-66
2021/11/07 05:30:33;;;;;;;27.52;20.52;;;9.60;99.90;;;;;;5094206;28;20024;-66
2021/11/07 05:32:58;;;;;;;28.70;20.60;;;9.60;99.90;;;;;;5094447;28;20115;-66
2021/11/07 05:35:26;;;;;;;26.75;20.77;;;9.60;99.90;;;;;;5094036;28;20382;-66
2021/11/07 05:37:51;;;;;;;31.65;20.65;;;9.60;99.90;;;;;;5094319;28;20061;-66
2021/11/07 05:40:18;;;;;;;26.55;19.20;;;9.60;99.90;;;;;;5092490;28;20024;-66
2021/11/07 05:42:44;;;;;;;25.98;19.67;;;9.60;99.90;;;;;;5094299;28;20020;-66
2021/11/07 05:45:10;;;;;;;28.33;20.48;;;9.60;99.90;;;;;;5092807;28;20401;-66
2021/11/07 05:47:36;;;;;;;24.98;18.80;;;9.60;99.90;;;;;;5094224;28;20099;-66
2021/11/07 05:50:04;;;;;;;29.00;20.27;;;9.60;99.90;;;;;;5092764;28;20450;-66
2021/11/07 05:52:29;;;;;;;31.23;21.35;;;9.60;99.90;;;;;;5094178;28;20020;-65
2021/11/07 05:54:56;;;;;;;29.35;21.30;;;9.60;99.90;;;;;;5093871;28;20107;-65
2021/11/07 05:57:22;;;;;;;24.77;20.48;;;9.60;99.90;;;;;;5093361;28;20165;-66
2021/11/07 05:59:48;;;;;;;33.67;23.33;;;9.60;99.90;;;;;;5093535;28;20476;-66
2021/11/07 06:02:14;;;;;;;31.50;22.90;;;9.70;99.90;;;;;;5092397;28;20024;-66
2021/11/07 06:04:40;;;;;;;33.85;23.65;;;9.60;99.90;;;;;;5093554;28;20020;-66
2021/11/07 06:07:06;;;;;;;32.95;23.98;;;9.70;99.90;;;;;;5093514;28;20073;-66
2021/11/07 06:09:32;;;;;;;37.75;24.25;;;9.60;99.90;;;;;;5094035;28;20086;-66
2021/11/07 06:11:57;;;;;;;33.67;25.23;;;9.70;99.90;;;;;;5093441;28;20024;-66
2021/11/07 06:14:23;;;;;;;32.35;24.75;;;9.60;99.90;;;;;;5093686;28;20032;-65
2021/11/07 06:16:49;;;;;;;33.78;24.98;;;9.70;99.90;;;;;;5093627;28;20406;-66
2021/11/07 06:19:14;;;;;;;36.85;24.60;;;9.60;99.90;;;;;;5093961;28;20050;-66
2021/11/07 06:21:41;;;;;;;37.13;25.45;;;9.60;99.90;;;;;;5093596;28;20067;-66
2021/11/07 06:24:11;;;;;;;41.50;25.88;;;9.60;99.90;;;;;;5093915;28;20020;-66
2021/11/07 06:26:37;;;;;;;39.08;27.48;;;9.60;99.90;;;;;;5092178;28;20102;-66
2021/11/07 06:29:02;;;;;;;41.22;26.17;;;9.60;99.90;;;;;;5093800;28;20024;-66
2021/11/07 06:31:28;;;;;;;41.88;28.73;;;9.60;99.90;;;;;;5093816;28;20031;-66
2021/11/07 06:33:54;;;;;;;47.97;29.38;;;9.70;99.90;;;;;;5093235;28;20020;-66
2021/11/07 06:36:20;;;;;;;53.38;33.60;;;9.60;99.90;;;;;;5093680;28;20097;-66
2021/11/07 06:38:45;;;;;;;51.10;32.47;;;9.60;99.90;;;;;;5092605;28;20062;-66
2021/11/07 06:41:11;;;;;;;52.03;32.42;;;9.60;99.90;;;;;;5092539;28;20028;-66
2021/11/07 06:43:37;;;;;;;42.80;26.63;;;9.60;99.90;;;;;;5095005;28;20028;-66
2021/11/07 06:46:03;;;;;;;25.55;15.88;;;9.50;99.90;;;;;;5096979;28;20412;-66
2021/11/07 06:48:29;;;;;;;21.08;10.93;;;9.50;99.90;;;;;;5095645;28;20024;-65
2021/11/07 06:50:55;;;;;;;20.60;9.40;;;9.40;99.90;;;;;;5095654;28;20024;-66
2021/11/07 06:53:21;;;;;;;19.73;8.70;;;9.50;99.90;;;;;;5096248;28;20381;-66
2021/11/07 06:55:46;;;;;;;19.52;8.50;;;9.50;99.90;;;;;;5095771;28;20098;-66
2021/11/07 06:58:12;;;;;;;17.15;7.25;;;9.40;99.90;;;;;;5097039;28;20450;-66
2021/11/07 07:00:38;;;;;;;21.42;7.15;;;9.40;99.90;;;;;;5096271;28;20435;-66
2021/11/07 07:03:03;;;;;;;21.00;6.50;;;9.40;99.90;;;;;;5097236;28;20020;-66
2021/11/07 07:05:29;;;;;;;14.73;6.82;;;9.40;99.90;;;;;;5096592;28;20028;-66
2021/11/07 07:07:57;;;;;;;18.52;8.13;;;9.40;99.90;;;;;;5096836;28;20028;-66
2021/11/07 07:10:29;;;;;;;22.10;9.55;;;9.40;99.90;;;;;;5095246;28;20153;-66
2021/11/07 07:13:04;;;;;;;18.98;11.75;;;9.40;99.90;;;;;;5096767;28;20028;-66
2021/11/07 07:15:35;;;;;;;27.95;15.02;;;9.40;99.90;;;;;;5096644;28;20028;-66
2021/11/07 07:18:44;;;;;;;34.60;22.08;;;9.40;99.90;;;;;;5096907;28;20097;-66
2021/11/07 07:24:05;;;;;;;37.90;26.80;;;9.60;99.90;;;;;;5096123;28;20473;-66
2021/11/07 07:29:14;;;;;;;37.05;26.10;;;9.70;99.90;;;;;;5096151;28;20477;-66
2021/11/07 07:34:26;;;;;;;33.90;24.02;;;9.80;99.90;;;;;;5094980;28;20024;-66
2021/11/07 07:36:54;;;;;;;40.55;22.65;;;9.90;99.90;;;;;;5096307;28;20074;-67
2021/11/07 07:39:20;;;;;;;32.35;22.25;;;9.90;99.90;;;;;;5094757;28;20021;-66
2021/11/07 07:41:46;;;;;;;36.42;22.15;;;10.00;99.90;;;;;;5095333;28;20017;-66
2021/11/07 07:44:12;;;;;;;35.17;22.52;;;10.00;99.90;;;;;;5096453;28;20022;-66
2021/11/07 07:46:42;;;;;;;36.53;22.48;;;10.10;99.90;;;;;;5096381;28;20020;-66
2021/11/07 07:49:08;;;;;;;33.00;20.98;;;10.10;99.90;;;;;;5096080;28;20052;-66
2021/11/07 07:51:35;;;;;;;32.28;21.10;;;10.20;99.90;;;;;;5096279;28;20377;-66
2021/11/07 07:54:02;;;;;;;34.70;19.25;;;10.30;99.90;;;;;;5096146;28;20052;-66
2021/11/07 07:56:30;;;;;;;31.95;19.92;;;10.40;99.90;;;;;;5095630;28;20123;-67
2021/11/07 07:58:56;;;;;;;37.33;19.70;;;10.30;99.90;;;;;;5096205;28;20415;-67
2021/11/07 08:01:23;;;;;;;30.10;18.45;;;10.30;99.90;;;;;;5096110;28;20020;-67
2021/11/07 08:03:49;;;;;;;33.80;20.40;;;10.30;99.90;;;;;;5096025;28;20016;-67
2021/11/07 08:06:15;;;;;;;30.33;19.38;;;10.30;99.90;;;;;;5096055;28;20024;-67
2021/11/07 08:08:40;;;;;;;34.30;19.48;;;10.30;99.90;;;;;;5095655;28;20035;-66
2021/11/07 08:11:06;;;;;;;29.75;19.15;;;10.40;99.90;;;;;;5094019;28;20032;-66
2021/11/07 08:13:32;;;;;;;31.60;20.25;;;10.40;99.90;;;;;;5095575;28;20024;-66
2021/11/07 08:15:58;;;;;;;36.83;20.10;;;10.40;99.90;;;;;;5095443;28;20469;-67
2021/11/07 08:18:24;;;;;;;29.95;16.73;;;10.40;99.90;;;;;;5095711;28;20106;-67
2021/11/07 08:20:49;;;;;;;30.30;17.63;;;10.40;99.90;;;;;;5095123;28;20019;-67
2021/11/07 08:23:16;;;;;;;32.05;18.13;;;10.40;99.90;;;;;;5095648;28;20016;-67
2021/11/07 08:25:42;;;;;;;27.90;16.83;;;10.40;99.90;;;;;;5095347;28;20030;-67
2021/11/07 08:28:09;;;;;;;28.67;14.85;;;10.40;99.90;;;;;;5095240;28;20024;-66
2021/11/07 08:30:41;;;;;;;27.33;14.85;;;10.50;99.90;;;;;;5095252;28;20032;-67
2021/11/07 08:33:09;;;;;;;28.48;13.98;;;10.50;99.90;;;;;;5094033;28;20032;-67
2021/11/07 08:35:39;;;;;;;24.42;13.13;;;10.60;99.90;;;;;;5095379;28;20028;-67
2021/11/07 08:38:12;;;;;;;30.70;13.43;;;10.60;99.90;;;;;;5095401;28;20012;-67
2021/11/07 08:40:42;;;;;;;25.15;12.57;;;10.60;99.90;;;;;;5095377;28;20028;-67
2021/11/07 08:54:29;;;;;;;28.08;11.90;;;10.60;99.90;;;;;;5094998;28;20076;-67
2021/11/07 09:00:43;;;;;;;20.60;8.63;;;10.50;99.90;;;;;;5070635;28;20061;-67
2021/11/07 09:02:50;;;;;;;22.65;9.10;;;10.60;99.90;;;;;;5070596;28;20386;-67
2021/11/07 09:05:19;;;;;;;28.55;10.40;;;10.60;99.90;;;;;;5070603;28;20025;-67
2021/11/07 09:08:17;;;;;;;26.98;10.43;;;10.60;99.90;;;;;;5070849;28;20063;-67
2021/11/07 09:10:33;;;;;;;26.75;10.45;;;10.60;99.90;;;;;;5070468;28;20021;-67
2021/11/07 09:13:01;;;;;;;25.55;10.18;;;10.70;99.90;;;;;;5070829;28;20378;-67
2021/11/07 09:15:28;;;;;;;23.75;9.38;;;10.70;99.90;;;;;;5070725;28;20060;-67
2021/11/07 09:17:55;;;;;;;27.50;9.85;;;10.80;99.90;;;;;;5070712;28;20016;-67
2021/11/07 09:20:29;;;;;;;24.42;9.98;;;10.70;99.90;;;;;;5070982;28;20085;-67
2021/11/07 09:23:00;;;;;;;26.23;9.98;;;10.80;99.90;;;;;;5070338;28;20021;-66
2021/11/07 09:25:31;;;;;;;27.88;9.48;;;10.80;99.90;;;;;;5070613;28;20021;-66
2021/11/07 09:28:01;;;;;;;23.20;9.90;;;10.80;99.90;;;;;;5069438;28;20082;-67
2021/11/07 09:30:35;;;;;;;24.08;10.25;;;10.80;99.90;;;;;;5070511;28;20016;-67
2021/11/07 09:33:10;;;;;;;35.50;9.93;;;10.90;99.90;;;;;;5069653;28;20031;-67
2021/11/07 09:35:57;;;;;;;26.92;9.10;;;10.90;99.90;;;;;;5068790;28;20035;-67
2021/11/07 09:38:27;;;;;;;23.60;8.63;;;10.90;99.90;;;;;;5069931;28;20162;-67
2021/11/07 09:41:10;;;;;;;26.08;8.63;;;10.90;99.90;;;;;;5070471;28;20044;-66
2021/11/07 09:43:42;;;;;;;;;;;10.80;99.90;;;;;;5070909;28;20114;-67
2021/11/07 09:46:17;;;;;;;28.15;9.30;;;10.80;99.90;;;;;;5070463;28;19911;-67
2021/11/07 09:48:45;;;;;;;24.38;9.57;;;10.70;99.90;;;;;;5070238;28;20387;-66
2021/11/07 09:51:17;;;;;;;22.30;9.23;;;10.70;99.90;;;;;;5069045;28;20079;-66
2021/11/07 09:53:47;;;;;;;30.65;8.98;;;10.70;99.90;;;;;;5070225;28;20021;-66
2021/11/07 09:56:13;;;;;;;19.17;8.05;;;11.50;99.90;;;;;;5068437;28;20047;-67
2021/11/07 09:58:46;;;;;;;22.58;7.53;;;12.10;99.90;;;;;;5069870;28;20066;-67
2021/11/07 10:01:12;;;;;;;23.00;7.05;;;12.70;99.90;;;;;;5068310;28;20075;-66
2021/11/07 10:03:43;;;;;;;23.63;6.80;;;13.00;99.90;;;;;;5068130;28;20029;-67
2021/11/07 10:06:27;;;;;;;18.35;6.22;;;13.10;99.90;;;;;;5069199;28;20090;-67
2021/11/07 10:08:53;;;;;;;21.65;6.82;;;12.60;99.90;;;;;;5056713;28;20025;-67
2021/11/07 10:11:18;;;;;;;19.20;5.53;;;13.20;99.90;;;;;;5056114;28;20071;-67
2021/11/07 10:14:19;;;;;;;20.98;5.97;;;13.70;99.90;;;;;;5056591;28;20036;-67
2021/11/07 10:16:50;;;;;;;19.20;4.90;;;13.90;99.90;;;;;;5056283;28;20029;-67
2021/11/07 10:19:28;;;;;;;21.60;5.80;;;13.90;99.90;;;;;;5038881;28;20025;-67
2021/11/07 10:21:54;;;;;;;19.92;5.88;;;14.30;99.90;;;;;;5056505;28;20052;-67
2021/11/07 10:24:28;;;;;;;17.98;5.03;;;14.10;99.90;;;;;;5056485;28;20024;-67
2021/11/07 10:26:59;;;;;;;20.65;4.47;;;14.20;99.90;;;;;;5055320;28;20104;-67
2021/11/07 10:29:29;;;;;;;18.42;5.35;;;13.90;99.90;;;;;;5056415;28;20032;-67
2021/11/07 10:32:01;;;;;;;28.55;5.32;;;13.50;99.90;;;;;;5055978;28;20025;-67
2021/11/07 10:34:39;;;;;;;20.08;5.18;;;13.10;99.90;;;;;;5055500;28;20158;-67
2021/11/07 10:37:59;;;;;;;19.85;5.22;;;12.80;99.90;;;;;;5056178;28;20060;-67
2021/11/07 10:46:08;;;;;;;15.55;4.07;;;12.50;99.90;;;;;;5055342;28;20036;-67
2021/11/07 10:54:20;;;;;;;22.83;4.63;;;13.40;99.90;;;;;;5055248;28;20033;-67
2021/11/07 10:57:06;;;;;;;18.45;4.35;;;13.90;99.90;;;;;;5055115;28;20509;-67
2021/11/07 10:59:31;;;;;;;17.50;4.00;;;14.00;99.90;;;;;;5055035;28;20387;-66
2021/11/07 11:01:57;;;;;;;15.35;3.83;;;14.00;99.90;;;;;;5055697;28;20028;-66
2021/11/07 11:04:23;;;;;;;13.55;3.58;;;14.40;99.90;;;;;;5055220;28;20029;-66
2021/11/07 11:06:56;;;;;;;18.25;4.15;;;14.20;99.90;;;;;;5055437;28;20025;-66
2021/11/07 11:09:22;;;;;;;17.63;4.15;;;13.90;99.90;;;;;;5055367;28;20071;-67
2021/11/07 11:11:51;;;;;;;16.73;3.58;;;13.40;99.90;;;;;;5054128;28;20429;-66
2021/11/07 11:14:32;;;;;;;15.02;3.33;;;13.20;99.90;;;;;;5053740;28;20032;-65
2021/11/07 11:17:22;;;;;;;21.20;4.28;;;13.10;99.90;;;;;;5054871;28;20035;-65
2021/11/07 11:20:16;;;;;;;28.48;4.05;;;13.20;99.90;;;;;;5054174;28;20029;-65
2021/11/07 11:22:53;;;;;;;17.77;4.18;;;13.30;99.90;;;;;;5054737;28;20036;-66
2021/11/07 11:25:58;;;;;;;16.20;3.95;;;13.50;99.90;;;;;;5054358;28;20442;-66
2021/11/07 11:29:09;;;;;;;19.00;3.47;;;13.70;99.90;;;;;;5053642;28;20393;-67
2021/11/07 11:31:09;;;;;;;14.73;3.53;;;13.60;99.90;;;;;;5054495;28;20017;-67
2021/11/07 11:33:47;;;;;;;16.08;3.60;;;13.70;99.90;;;;;;5055166;28;20024;-67
2021/11/07 11:36:35;;;;;;;21.60;4.50;;;13.70;99.90;;;;;;5054745;28;20025;-66
2021/11/07 11:39:12;;;;;;;17.40;3.78;;;13.40;99.90;;;;;;5054460;28;20017;-66
2021/11/07 11:41:47;;;;;;;15.85;3.97;;;13.10;99.90;;;;;;5054785;28;20099;-67
2021/11/07 11:44:15;;;;;;;14.85;4.00;;;12.90;99.90;;;;;;5054754;28;20017;-66
2021/11/07 11:46:58;;;;;;;15.68;3.65;;;12.70;99.90;;;;;;5053496;28;20025;-67
2021/11/07 11:55:07;;;;;;;18.17;3.47;;;12.20;99.90;;;;;;5111201;28;20381;-67
2021/11/07 11:57:51;;;;;;;14.52;4.00;;;12.20;99.90;;;;;;5110514;28;20038;-67
2021/11/07 12:00:41;;;;;;;20.58;3.92;;;12.20;99.90;;;;;;5110295;28;20548;-67
2021/11/07 12:03:29;;;;;;;21.75;4.28;;;12.30;99.90;;;;;;5111792;28;20409;-67
2021/11/07 12:06:00;;;;;;;20.10;3.63;;;12.40;99.90;;;;;;5111199;28;20024;-67
2021/11/07 12:09:02;;;;;;;19.55;4.40;;;12.60;99.90;;;;;;5111704;28;20058;-67
2021/11/07 12:11:56;;;;;;;19.52;4.18;;;12.40;99.90;;;;;;5110873;28;20035;-67
2021/11/07 12:14:13;;;;;;;18.85;4.35;;;12.20;99.90;;;;;;5110903;28;20028;-67
2021/11/07 12:16:49;;;;;;;26.52;4.13;;;12.20;99.90;;;;;;5110939;28;20020;-67
2021/11/07 12:19:18;;;;;;;13.13;3.58;;;12.20;99.90;;;;;;5111473;28;20062;-67
2021/11/07 12:22:02;;;;;;;16.80;3.42;;;12.10;99.90;;;;;;5110134;28;20051;-67
2021/11/07 12:24:54;;;;;;;20.15;4.47;;;12.20;99.90;;;;;;5111348;28;20026;-68
2021/11/07 12:27:42;;;;;;;19.27;4.15;;;12.30;99.90;;;;;;5111329;28;20044;-66
2021/11/07 12:32:51;;;;;;;16.73;4.07;;;12.70;99.90;;;;;;5071637;28;20383;-67
2021/11/07 12:35:38;;;;;;;16.80;3.80;;;13.00;99.90;;;;;;5069968;28;20029;-67
2021/11/07 12:43:59;;;;;;;21.45;3.78;;;12.60;99.90;;;;;;5091817;28;20090;-67
2021/11/07 12:46:42;;;;;;;15.20;4.00;;;12.40;99.90;;;;;;5091587;28;20044;-67
2021/11/07 12:51:57;;;;;;;21.33;3.90;;;12.30;99.90;;;;;;5112235;27;20897;-66
2021/11/07 12:57:08;;;;;;;14.13;3.30;;;12.10;99.90;;;;;;5091887;28;20179;-65
2021/11/07 12:59:55;;;;;;;16.85;3.60;;;11.90;99.90;;;;;;5090119;28;20035;-67
2021/11/07 13:02:30;;;;;;;19.58;4.55;;;11.80;99.90;;;;;;5089656;28;20029;-66
2021/11/07 13:05:07;;;;;;;19.75;4.60;;;11.70;99.90;;;;;;5091192;28;20068;-65
2021/11/07 13:07:44;;;;;;;25.52;4.65;;;11.60;99.90;;;;;;5091142;28;20107;-66
2021/11/07 13:10:21;;;;;;;17.80;4.55;;;11.50;99.90;;;;;;5089845;28;20028;-66
2021/11/07 13:12:53;;;;;;;26.25;4.75;;;11.20;99.90;;;;;;5091325;28;20052;-67
2021/11/07 13:24:11;;;;;;;18.05;4.40;;;10.80;99.90;;;;;;5091851;28;20406;-66
2021/11/07 13:26:58;;;;;;;20.63;4.47;;;10.60;99.90;;;;;;5090930;28;20390;-67
2021/11/07 13:29:43;;;;;;;14.77;3.55;;;10.50;99.90;;;;;;5089825;28;20449;-66
2021/11/07 13:32:22;;;;;;;20.02;4.63;;;10.40;99.90;;;;;;5090941;28;20427;-67
2021/11/07 13:35:10;;;;;;;20.55;4.28;;;10.20;99.90;;;;;;5090843;28;20047;-67
2021/11/07 13:37:44;;;;;;;16.77;4.43;;;10.00;99.90;;;;;;5090428;28;20016;-66
2021/11/07 13:40:31;;;;;;;21.85;4.75;;;9.80;99.90;;;;;;5091072;28;20034;-66
2021/11/07 13:43:19;;;;;;;17.45;4.07;;;9.60;99.90;;;;;;5091172;28;20086;-66
2021/11/07 13:45:49;;;;;;;15.77;3.47;;;9.60;99.90;;;;;;5089827;28;20023;-66
2021/11/07 13:48:21;;;;;;;17.65;4.30;;;9.50;99.90;;;;;;5091162;28;20024;-66
2021/11/07 13:50:48;;;;;;;26.60;5.03;;;9.50;99.90;;;;;;5089284;28;20024;-66
2021/11/07 13:53:36;;;;;;;23.85;4.93;;;9.50;99.90;;;;;;5089324;28;20074;-65
2021/11/07 13:56:06;;;;;;;20.35;4.28;;;9.50;99.90;;;;;;5089205;28;20032;-67
2021/11/07 13:58:34;;;;;;;19.88;3.92;;;9.60;99.90;;;;;;5091008;28;20024;-66
2021/11/07 14:01:05;;;;;;;18.95;3.80;;;9.50;99.90;;;;;;5089100;28;20082;-65
2021/11/07 14:03:31;;;;;;;23.00;3.95;;;9.60;99.90;;;;;;5089353;28;20030;-65
2021/11/07 14:06:19;;;;;;;18.50;3.88;;;9.50;99.90;;;;;;5089835;28;20050;-66
2021/11/07 14:08:48;;;;;;;16.75;3.92;;;9.50;99.90;;;;;;5090783;28;20065;-65